Time;durP1;ratioP1;P1;durP2;ratioP2;P2;SDS_P1;SDS_P2;PMS_P1;PMS_P2;Temp;Humidity;BMP_temperature;BMP_pressure;BME280_temperature;BME280_humidity;BME280_pressure;Samples;Min_cycle;Max_cycle;Signal;HPM_P1;HPM_P2
2022/05/10 00:01:56;;;;;;;7.83;1.97;;;10.30;84.00;;;;;;4417869;28;657045;-65
2022/05/10 00:04:45;;;;;;;6.43;1.90;;;10.20;84.70;;;;;;4431232;28;657356;-65
2022/05/10 00:07:33;;;;;;;9.60;1.90;;;10.20;82.60;;;;;;4423218;28;657519;-65
2022/05/10 00:10:21;;;;;;;5.27;2.00;;;10.20;79.90;;;;;;4416846;28;656512;-65
2022/05/10 00:13:08;;;;;;;4.60;1.70;;;10.20;80.40;;;;;;4436882;28;656514;-65
2022/05/10 00:15:57;;;;;;;3.72;1.70;;;10.10;80.40;;;;;;4421676;28;656863;-65
2022/05/10 00:18:44;;;;;;;6.23;1.80;;;10.00;82.10;;;;;;4435403;28;657127;-66
2022/05/10 00:21:31;;;;;;;4.37;1.77;;;10.00;81.10;;;;;;4429392;28;657025;-65
2022/05/10 00:24:18;;;;;;;6.25;1.90;;;10.10;78.30;;;;;;4435185;28;658307;-66
2022/05/10 00:27:06;;;;;;;6.47;2.40;;;10.00;80.00;;;;;;4418149;28;656357;-65
2022/05/10 00:29:53;;;;;;;7.18;2.13;;;9.90;82.60;;;;;;4439059;28;656843;-65
2022/05/10 00:32:42;;;;;;;4.33;1.80;;;10.00;78.70;;;;;;4425349;28;655860;-65
2022/05/10 00:35:31;;;;;;;6.17;1.90;;;10.00;77.90;;;;;;4448880;28;657091;-65
2022/05/10 00:38:19;;;;;;;4.73;2.20;;;9.90;77.80;;;;;;4402324;28;657519;-65
2022/05/10 00:41:07;;;;;;;6.53;2.00;;;9.80;79.20;;;;;;4415035;28;655941;-65
2022/05/10 00:43:58;;;;;;;6.03;2.00;;;9.70;81.30;;;;;;4441839;28;655094;-65
2022/05/10 00:46:55;;;;;;;4.83;2.03;;;9.60;79.20;;;;;;4402293;28;655674;-65
2022/05/10 00:49:46;;;;;;;8.03;2.00;;;9.70;77.70;;;;;;4400262;28;656409;-65
2022/05/10 00:52:38;;;;;;;4.93;1.93;;;9.70;77.80;;;;;;4412524;28;656727;-65
2022/05/10 00:55:28;;;;;;;5.93;1.70;;;9.60;78.70;;;;;;4396479;28;657021;-65
2022/05/10 00:58:22;;;;;;;5.17;2.00;;;9.60;76.50;;;;;;4423908;28;655988;-65
2022/05/10 01:01:09;;;;;;;9.83;1.90;;;9.60;77.10;;;;;;4424117;28;655537;-66
2022/05/10 01:03:57;;;;;;;4.00;2.17;;;9.60;76.50;;;;;;4418229;28;655747;-65
2022/05/10 01:06:49;;;;;;;3.17;1.80;;;9.60;78.00;;;;;;4444628;28;655559;-65
2022/05/10 01:09:45;;;;;;;3.70;1.60;;;9.60;78.40;;;;;;4422353;28;656255;-65
2022/05/10 01:12:34;;;;;;;3.17;1.63;;;9.50;76.40;;;;;;4411189;28;655185;-65
2022/05/10 01:15:23;;;;;;;4.07;2.20;;;9.40;79.30;;;;;;4422434;28;655574;-66
2022/05/10 01:18:10;;;;;;;3.97;1.87;;;9.30;78.10;;;;;;4419710;28;655827;-65
2022/05/10 01:21:00;;;;;;;3.60;1.77;;;9.30;80.00;;;;;;4450306;28;655368;-65
2022/05/10 01:24:04;;;;;;;6.10;1.93;;;9.30;81.20;;;;;;4422683;28;656664;-65
2022/05/10 01:26:58;;;;;;;5.80;1.87;;;9.30;81.40;;;;;;4395522;28;656419;-65
2022/05/10 01:29:50;;;;;;;4.07;1.60;;;9.20;79.90;;;;;;4411620;28;655755;-65
2022/05/10 01:35:47;;;;;;;5.17;1.97;;;9.20;80.70;;;;;;4397494;28;656783;-65
2022/05/10 01:38:38;;;;;;;4.47;1.80;;;9.10;80.20;;;;;;4441500;28;655878;-64
2022/05/10 01:41:30;;;;;;;2.87;1.60;;;9.10;79.80;;;;;;4409518;28;656009;-65
2022/05/10 01:44:21;;;;;;;3.17;1.73;;;9.10;78.80;;;;;;4423877;28;657924;-65
2022/05/10 01:47:10;;;;;;;4.23;1.47;;;9.10;78.50;;;;;;4419977;28;655733;-65
2022/05/10 01:50:02;;;;;;;3.27;1.73;;;9.10;77.90;;;;;;4431129;28;657311;-65
2022/05/10 01:52:51;;;;;;;5.20;1.90;;;9.10;76.50;;;;;;4418767;28;656133;-65
2022/05/10 01:55:39;;;;;;;5.93;1.70;;;9.10;77.80;;;;;;4420680;28;656613;-66
2022/05/10 01:58:27;;;;;;;4.77;1.87;;;9.20;73.60;;;;;;4421111;28;656816;-65
2022/05/10 02:01:20;;;;;;;4.00;1.80;;;9.20;72.80;;;;;;4448797;28;655833;-65
2022/05/10 02:04:10;;;;;;;7.37;1.73;;;9.20;72.20;;;;;;4396866;28;656010;-65
2022/05/10 02:07:00;;;;;;;5.03;1.93;;;9.20;73.10;;;;;;4415484;28;657297;-66
2022/05/10 02:09:49;;;;;;;7.83;1.87;;;9.20;73.80;;;;;;4423276;28;655917;-65
2022/05/10 02:12:39;;;;;;;5.27;1.87;;;9.20;73.30;;;;;;4428401;28;655441;-65
2022/05/10 02:15:28;;;;;;;13.77;2.10;;;9.10;75.40;;;;;;4417723;28;657192;-65
2022/05/10 02:18:18;;;;;;;5.73;2.07;;;9.00;75.90;;;;;;4429569;28;656844;-65
2022/05/10 02:21:10;;;;;;;4.70;1.80;;;9.00;73.80;;;;;;4427393;28;656176;-65
2022/05/10 02:24:01;;;;;;;5.10;2.00;;;8.90;74.80;;;;;;4416841;28;656663;-66
2022/05/10 02:26:50;;;;;;;3.80;1.80;;;8.90;76.60;;;;;;4423709;28;657186;-65
2022/05/10 02:29:40;;;;;;;3.20;1.60;;;8.90;75.20;;;;;;4422471;28;656599;-65
2022/05/10 02:35:39;;;;;;;3.27;1.80;;;8.80;77.70;;;;;;4403791;28;656065;-65
2022/05/10 02:38:29;;;;;;;4.67;1.67;;;8.80;75.70;;;;;;4425907;28;655627;-65
2022/05/10 02:41:18;;;;;;;8.13;1.97;;;8.70;78.00;;;;;;4421566;28;656252;-65
2022/05/10 02:44:05;;;;;;;3.53;1.60;;;8.80;75.30;;;;;;4424175;28;655550;-65
2022/05/10 02:46:52;;;;;;;5.73;1.60;;;8.70;77.40;;;;;;4453276;28;656342;-65
2022/05/10 02:49:40;;;;;;;5.37;1.70;;;8.70;78.40;;;;;;4452369;28;655558;-65
2022/05/10 02:52:28;;;;;;;3.50;1.87;;;8.60;79.30;;;;;;4457733;28;656816;-65
2022/05/10 02:55:19;;;;;;;8.50;1.70;;;8.60;77.30;;;;;;4423978;28;655846;-65
2022/05/10 02:58:09;;;;;;;4.07;1.60;;;8.50;79.80;;;;;;4434421;28;655533;-65
2022/05/10 03:00:59;;;;;;;6.60;1.63;;;8.50;81.60;;;;;;4432383;28;655891;-65
2022/05/10 03:03:47;;;;;;;2.83;1.70;;;8.50;81.50;;;;;;4421869;28;656464;-65
2022/05/10 03:06:36;;;;;;;7.03;1.80;;;8.40;82.90;;;;;;4448791;28;655329;-65
2022/05/10 03:09:23;;;;;;;5.90;1.87;;;8.40;84.50;;;;;;4431429;28;655941;-65
2022/05/10 03:12:13;;;;;;;6.22;1.60;;;8.30;86.70;;;;;;4427555;28;655372;-64
2022/05/10 03:15:00;;;;;;;5.17;1.80;;;8.30;87.70;;;;;;4442143;28;655472;-64
2022/05/10 03:17:47;;;;;;;4.97;1.70;;;8.30;87.10;;;;;;4441152;28;655493;-65
2022/05/10 03:20:35;;;;;;;7.20;2.00;;;8.20;88.00;;;;;;4438854;28;655534;-65
2022/05/10 03:23:23;;;;;;;8.90;2.20;;;8.20;87.60;;;;;;4430635;28;657113;-65
2022/05/10 03:26:11;;;;;;;4.07;1.80;;;8.00;90.00;;;;;;4433772;28;655641;-65
2022/05/10 03:28:59;;;;;;;9.27;2.03;;;8.00;92.90;;;;;;4442343;28;656980;-65
2022/05/10 03:31:46;;;;;;;5.33;1.90;;;7.90;93.60;;;;;;4418228;28;655162;-65
2022/05/10 03:37:38;;;;;;;5.32;2.03;;;7.80;96.60;;;;;;4413354;28;656053;-65
2022/05/10 03:40:25;;;;;;;6.70;1.70;;;7.70;97.20;;;;;;4419872;28;655433;-64
2022/05/10 03:43:13;;;;;;;4.20;1.53;;;7.60;97.60;;;;;;4438156;28;656417;-65
2022/05/10 03:46:07;;;;;;;3.80;1.70;;;7.60;99.90;;;;;;4422326;28;655447;-64
2022/05/10 03:48:54;;;;;;;5.93;1.80;;;7.50;99.90;;;;;;4417380;28;655637;-65
2022/05/10 03:51:41;;;;;;;3.70;1.90;;;7.60;99.90;;;;;;4414933;28;655482;-65
2022/05/10 03:54:28;;;;;;;7.10;1.90;;;7.50;99.90;;;;;;4432167;28;657366;-65
2022/05/10 03:57:15;;;;;;;2.90;1.70;;;7.60;99.90;;;;;;4412961;28;656288;-64
2022/05/10 04:00:04;;;;;;;4.50;2.10;;;7.50;99.90;;;;;;4437104;28;656942;-65
2022/05/10 04:02:54;;;;;;;3.73;1.60;;;7.50;99.90;;;;;;4417476;28;656791;-65
2022/05/10 04:05:41;;;;;;;8.97;2.10;;;7.50;99.90;;;;;;4411639;28;655523;-65
2022/05/10 04:08:29;;;;;;;4.07;2.17;;;7.50;99.90;;;;;;4438536;28;656676;-65
2022/05/10 04:11:16;;;;;;;6.90;1.93;;;7.60;99.90;;;;;;4419255;28;655727;-65
2022/05/10 04:14:03;;;;;;;3.10;1.73;;;7.70;99.90;;;;;;4441101;28;656291;-65
2022/05/10 04:16:51;;;;;;;4.10;1.90;;;7.70;99.90;;;;;;4418465;28;655360;-65
2022/05/10 04:19:39;;;;;;;5.23;2.20;;;7.90;99.90;;;;;;4450601;28;656677;-65
2022/05/10 04:22:26;;;;;;;2.40;1.73;;;8.20;99.90;;;;;;4416845;28;656084;-67
2022/05/10 04:25:14;;;;;;;5.63;2.10;;;8.30;99.90;;;;;;4438779;28;656069;-67
2022/05/10 04:28:03;;;;;;;6.70;2.70;;;8.40;99.90;;;;;;4418687;28;655826;-67
2022/05/10 04:30:51;;;;;;;9.17;2.80;;;8.50;99.90;;;;;;4418918;28;655907;-67
2022/05/10 04:33:38;;;;;;;7.63;2.33;;;8.70;99.90;;;;;;4443448;28;656734;-68
2022/05/10 04:36:27;;;;;;;6.20;2.57;;;8.80;96.60;;;;;;4414270;28;655772;-67
2022/05/10 04:39:14;;;;;;;6.53;2.50;;;8.90;98.00;;;;;;4437143;28;655676;-68
2022/05/10 04:42:00;;;;;;;4.07;2.20;;;9.00;97.50;;;;;;4413810;28;655230;-68
2022/05/10 04:44:47;;;;;;;3.80;2.40;;;9.10;96.70;;;;;;4437559;28;656524;-68
2022/05/10 04:47:35;;;;;;;4.43;2.30;;;9.20;96.50;;;;;;4434600;28;655781;-67
2022/05/10 04:50:22;;;;;;;6.13;2.67;;;9.30;97.10;;;;;;4442137;28;655792;-67
2022/05/10 04:53:11;;;;;;;6.93;2.83;;;9.40;95.70;;;;;;4441309;28;656066;-65
2022/05/10 04:55:58;;;;;;;4.80;2.40;;;9.50;94.60;;;;;;4413323;28;655707;-65
2022/05/10 04:58:45;;;;;;;6.83;2.47;;;9.60;93.20;;;;;;4418470;28;655367;-65
2022/05/10 05:01:32;;;;;;;7.37;2.30;;;9.70;93.50;;;;;;4438459;28;656464;-65
2022/05/10 05:04:20;;;;;;;8.97;2.67;;;9.90;92.80;;;;;;4436917;28;655469;-65
2022/05/10 05:07:09;;;;;;;6.83;2.80;;;9.90;92.00;;;;;;4445642;28;656814;-65
2022/05/10 05:09:57;;;;;;;7.43;2.60;;;10.10;90.70;;;;;;4420157;28;655876;-65
2022/05/10 05:12:44;;;;;;;7.70;2.93;;;10.10;92.90;;;;;;4436267;28;657186;-66
2022/05/10 05:15:31;;;;;;;6.47;2.50;;;10.30;92.40;;;;;;4419196;28;656585;-65
2022/05/10 05:18:19;;;;;;;6.93;2.93;;;10.40;91.00;;;;;;4428547;28;657083;-65
2022/05/10 05:21:06;;;;;;;7.47;2.60;;;10.50;90.00;;;;;;4420139;28;656318;-65
2022/05/10 05:23:53;;;;;;;6.80;3.07;;;10.60;88.90;;;;;;4437927;28;656842;-65
2022/05/10 05:26:42;;;;;;;6.57;2.50;;;10.70;90.00;;;;;;4421842;28;656646;-65
2022/05/10 05:29:29;;;;;;;6.40;3.00;;;10.90;91.30;;;;;;4435225;28;657625;-66
2022/05/10 05:32:17;;;;;;;16.23;3.03;;;10.90;90.10;;;;;;4414881;28;656453;-66
2022/05/10 05:35:05;;;;;;;6.97;2.93;;;11.10;88.40;;;;;;4430913;28;657865;-65
2022/05/10 05:37:54;;;;;;;11.97;2.57;;;11.30;88.10;;;;;;4409061;28;657604;-66
2022/05/10 05:40:41;;;;;;;6.77;2.83;;;11.50;87.70;;;;;;4418187;28;657643;-65
2022/05/10 05:43:29;;;;;;;10.43;3.27;;;11.60;85.40;;;;;;4442942;28;656933;-66
2022/05/10 05:46:16;;;;;;;8.40;2.83;;;11.70;87.40;;;;;;4392719;28;657912;-65
2022/05/10 05:49:04;;;;;;;10.03;2.83;;;11.80;82.70;;;;;;4418787;28;656972;-66
2022/05/10 05:51:51;;;;;;;9.17;3.30;;;12.00;82.40;;;;;;4409063;28;657679;-66
2022/05/10 05:54:38;;;;;;;7.77;2.87;;;12.20;82.00;;;;;;4423802;28;656471;-66
2022/05/10 05:57:25;;;;;;;10.53;3.30;;;12.30;78.30;;;;;;4402332;28;656729;-65
2022/05/10 06:00:16;;;;;;;4.53;2.60;;;12.50;80.40;;;;;;4426729;28;658172;-65
2022/05/10 06:03:03;;;;;;;10.67;3.20;;;12.70;79.70;;;;;;4392652;28;657602;-66
2022/05/10 06:05:50;;;;;;;8.77;2.87;;;12.80;78.50;;;;;;4398602;28;657373;-65
2022/05/10 06:08:38;;;;;;;8.80;2.83;;;12.90;78.10;;;;;;4423581;28;657772;-66
2022/05/10 06:11:25;;;;;;;7.43;2.80;;;13.00;76.20;;;;;;4413788;28;656659;-65
2022/05/10 06:14:12;;;;;;;13.10;3.37;;;13.10;74.20;;;;;;4424674;28;657454;-65
2022/05/10 06:17:01;;;;;;;7.73;2.80;;;13.30;74.80;;;;;;4413404;28;657901;-65
2022/05/10 06:19:49;;;;;;;7.07;3.17;;;13.50;73.30;;;;;;4394351;28;657824;-65
2022/05/10 06:22:36;;;;;;;6.00;3.00;;;13.70;72.00;;;;;;4401646;28;656698;-65
2022/05/10 06:25:24;;;;;;;11.93;2.93;;;13.80;71.30;;;;;;4419996;28;656825;-66
2022/05/10 06:28:11;;;;;;;8.23;2.83;;;14.00;71.90;;;;;;4397196;28;657750;-66
2022/05/10 06:30:58;;;;;;;8.17;3.43;;;14.20;72.60;;;;;;4414699;28;658024;-65
2022/05/10 06:33:47;;;;;;;12.87;3.20;;;14.30;70.90;;;;;;4399246;28;656155;-65
2022/05/10 06:36:34;;;;;;;5.07;2.93;;;14.50;72.30;;;;;;4418825;28;657416;-65
2022/05/10 06:39:21;;;;;;;8.13;3.10;;;14.50;72.80;;;;;;4395732;28;656368;-66
2022/05/10 06:42:09;;;;;;;7.80;2.80;;;14.70;72.00;;;;;;4414231;28;657482;-66
2022/05/10 06:44:56;;;;;;;6.07;2.73;;;14.90;71.20;;;;;;4395131;28;656781;-66
2022/05/10 06:47:46;;;;;;;9.73;2.60;;;14.90;75.50;;;;;;4421632;28;657659;-66
2022/05/10 06:50:34;;;;;;;7.83;2.83;;;15.20;74.50;;;;;;4390660;28;657463;-66
2022/05/10 06:53:22;;;;;;;12.90;3.17;;;15.40;71.80;;;;;;4395595;28;656147;-65
2022/05/10 06:56:09;;;;;;;7.13;2.87;;;15.60;70.90;;;;;;4412781;28;657756;-66
2022/05/10 06:58:56;;;;;;;7.03;3.13;;;15.50;68.10;;;;;;4398530;28;657282;-66
2022/05/10 07:01:43;;;;;;;5.83;2.70;;;15.70;70.00;;;;;;4412929;28;657949;-66
2022/05/10 07:04:30;;;;;;;7.77;2.63;;;16.00;76.30;;;;;;4394840;28;656785;-66
2022/05/10 07:07:19;;;;;;;9.53;3.30;;;15.90;67.60;;;;;;4413844;28;658400;-66
2022/05/10 07:10:08;;;;;;;7.27;3.30;;;16.30;69.30;;;;;;4406336;28;657011;-66
2022/05/10 07:12:58;;;;;;;9.13;3.30;;;16.40;70.80;;;;;;4401982;28;656662;-66
2022/05/10 07:15:45;;;;;;;7.60;3.20;;;16.50;70.40;;;;;;4412070;28;656449;-65
2022/05/10 07:18:32;;;;;;;8.23;3.23;;;16.30;68.50;;;;;;4415110;28;658075;-66
2022/05/10 07:21:19;;;;;;;8.40;3.00;;;16.10;68.60;;;;;;4421932;28;656122;-66
2022/05/10 07:24:08;;;;;;;8.53;3.10;;;16.20;70.60;;;;;;4403336;28;656863;-66
2022/05/10 07:26:56;;;;;;;9.23;3.23;;;16.70;77.90;;;;;;4397321;28;657030;-66
2022/05/10 07:29:43;;;;;;;8.33;2.90;;;17.10;68.70;;;;;;4426241;28;658084;-66
2022/05/10 07:32:31;;;;;;;6.07;3.37;;;17.20;75.40;;;;;;4396596;28;656403;-66
2022/05/10 07:36:23;;;;;;;9.53;3.20;;;17.50;69.40;;;;;;4424597;28;657805;-66
2022/05/10 07:38:25;;;;;;;9.40;3.20;;;17.40;71.80;;;;;;4384749;28;656435;-66
2022/05/10 07:41:14;;;;;;;8.23;3.07;;;17.50;71.50;;;;;;4424940;28;657846;-66
2022/05/10 07:44:01;;;;;;;6.37;3.10;;;17.80;69.60;;;;;;4400465;28;657173;-66
2022/05/10 07:46:48;;;;;;;12.70;3.40;;;17.60;63.70;;;;;;4420696;28;656664;-66
2022/05/10 07:49:35;;;;;;;16.10;3.00;;;17.70;65.10;;;;;;4397990;28;659171;-66
2022/05/10 07:52:23;;;;;;;4.50;2.87;;;17.80;65.10;;;;;;4422840;28;658805;-66
2022/05/10 07:55:12;;;;;;;10.53;3.57;;;18.20;68.10;;;;;;4413001;28;656881;-65
2022/05/10 07:58:01;;;;;;;9.10;3.20;;;17.60;67.00;;;;;;4419127;28;657264;-66
2022/05/10 08:00:48;;;;;;;9.60;3.53;;;17.60;68.40;;;;;;4396247;28;657945;-66
2022/05/10 08:03:35;;;;;;;13.77;3.40;;;17.60;65.30;;;;;;4403458;28;656815;-66
2022/05/10 08:06:23;;;;;;;6.90;3.13;;;18.00;66.20;;;;;;4418054;28;658632;-66
2022/05/10 08:09:10;;;;;;;7.40;2.80;;;17.70;63.20;;;;;;4411697;28;656751;-65
2022/05/10 08:11:57;;;;;;;6.90;2.97;;;17.80;67.70;;;;;;4419401;28;657343;-65
2022/05/10 08:14:46;;;;;;;3.77;2.63;;;17.80;68.20;;;;;;4419310;28;656300;-65
2022/05/10 08:17:34;;;;;;;7.10;2.93;;;18.20;71.70;;;;;;4421619;28;657335;-65
2022/05/10 08:20:21;;;;;;;9.87;3.10;;;18.60;67.10;;;;;;4403118;28;656586;-66
2022/05/10 08:23:09;;;;;;;4.87;3.20;;;19.00;64.10;;;;;;4420258;28;657525;-66
2022/05/10 08:25:58;;;;;;;6.67;2.87;;;18.70;60.40;;;;;;4402781;28;656870;-66
2022/05/10 08:28:45;;;;;;;7.87;3.13;;;19.30;65.40;;;;;;4402513;28;656738;-66
2022/05/10 08:31:34;;;;;;;7.30;2.97;;;19.30;60.50;;;;;;4420042;28;657883;-65
2022/05/10 08:34:21;;;;;;;5.97;2.87;;;18.30;59.30;;;;;;4396240;28;656487;-65
2022/05/10 08:37:08;;;;;;;11.17;3.00;;;18.40;61.60;;;;;;4419733;28;657452;-65
2022/05/10 08:39:55;;;;;;;9.07;3.03;;;18.90;58.50;;;;;;4403157;28;657586;-66
2022/05/10 08:42:46;;;;;;;14.23;3.67;;;19.40;58.60;;;;;;4420146;28;657588;-65
2022/05/10 08:45:34;;;;;;;5.77;2.90;;;19.10;57.80;;;;;;4402349;28;658680;-66
2022/05/10 08:48:23;;;;;;;9.00;2.80;;;19.30;57.70;;;;;;4405110;28;657099;-66
2022/05/10 08:51:10;;;;;;;7.63;2.97;;;19.70;56.90;;;;;;4416464;28;656836;-66
2022/05/10 08:53:57;;;;;;;5.87;2.87;;;19.90;53.00;;;;;;4425449;28;657442;-66
2022/05/10 08:56:47;;;;;;;6.63;2.70;;;19.20;55.70;;;;;;4421150;28;656644;-66
2022/05/10 08:59:37;;;;;;;9.03;2.57;;;19.60;52.20;;;;;;4419920;28;656129;-66
2022/05/10 09:02:30;;;;;;;5.77;2.53;;;20.20;51.40;;;;;;4411488;28;656320;-66
2022/05/10 09:05:21;;;;;;;4.30;2.53;;;19.60;51.00;;;;;;4398265;28;657665;-66
2022/05/10 09:08:12;;;;;;;4.50;2.30;;;20.00;53.40;;;;;;4400266;28;657446;-66
2022/05/10 09:11:01;;;;;;;8.47;2.70;;;20.10;53.80;;;;;;4395449;28;656644;-66
2022/05/10 09:13:48;;;;;;;8.50;3.17;;;20.10;50.40;;;;;;4395102;28;657324;-66
2022/05/10 09:16:35;;;;;;;8.63;3.20;;;20.20;50.00;;;;;;4405222;28;656724;-66
2022/05/10 09:19:27;;;;;;;7.03;2.70;;;20.80;51.70;;;;;;4424033;28;656244;-66
2022/05/10 09:22:32;;;;;;;10.73;2.63;;;21.00;48.90;;;;;;4395725;28;657304;-66
2022/05/10 09:25:33;;;;;;;9.60;3.07;;;20.80;51.90;;;;;;4401885;28;657596;-66
2022/05/10 09:28:24;;;;;;;10.17;3.00;;;20.60;48.90;;;;;;4385599;28;656203;-66
2022/05/10 09:34:48;;;;;;;6.60;3.20;;;20.60;51.50;;;;;;4396867;28;657023;-66
2022/05/10 09:37:38;;;;;;;10.10;3.23;;;19.70;50.70;;;;;;4370884;28;657158;-66
2022/05/10 09:40:30;;;;;;;17.40;3.00;;;20.00;56.00;;;;;;4404973;28;657874;-66
2022/05/10 09:43:21;;;;;;;9.00;3.10;;;20.30;50.50;;;;;;4395737;28;658722;-66
2022/05/10 09:46:10;;;;;;;7.23;3.10;;;20.20;54.80;;;;;;4402804;28;657148;-66
2022/05/10 09:48:58;;;;;;;8.37;3.03;;;20.90;52.10;;;;;;4398370;28;657683;-66
2022/05/10 09:51:45;;;;;;;6.27;2.90;;;20.50;51.60;;;;;;4415964;28;657059;-67
2022/05/10 09:54:37;;;;;;;12.80;3.10;;;20.20;49.90;;;;;;4422868;28;657148;-66
2022/05/10 09:57:30;;;;;;;7.20;2.90;;;20.30;50.80;;;;;;4394068;28;658969;-66
2022/05/10 10:00:18;;;;;;;8.40;2.80;;;20.40;51.40;;;;;;4376093;28;657805;-66
2022/05/10 10:03:05;;;;;;;10.30;2.97;;;20.70;50.40;;;;;;4405910;28;656417;-66
2022/05/10 10:05:54;;;;;;;6.03;2.70;;;21.40;48.30;;;;;;4421198;28;657945;-66
2022/05/10 10:08:42;;;;;;;6.00;2.90;;;21.80;47.40;;;;;;4401848;28;656788;-67
2022/05/10 10:11:33;;;;;;;11.00;2.80;;;21.20;48.30;;;;;;4421197;28;657598;-66
2022/05/10 10:14:32;;;;;;;8.53;2.57;;;21.10;48.40;;;;;;4378594;28;657799;-66
2022/05/10 10:17:22;;;;;;;9.77;2.97;;;21.60;47.90;;;;;;4391214;28;656978;-66
2022/05/10 10:20:16;;;;;;;5.43;2.20;;;21.40;49.30;;;;;;4402050;28;656614;-65
2022/05/10 10:23:07;;;;;;;7.17;2.93;;;21.10;51.90;;;;;;4397581;28;657586;-66
2022/05/10 10:25:56;;;;;;;11.10;3.10;;;21.50;45.50;;;;;;4420006;28;657169;-66
2022/05/10 10:28:52;;;;;;;7.43;2.80;;;21.10;49.50;;;;;;4435000;28;658644;-66
2022/05/10 10:31:41;;;;;;;7.97;2.50;;;20.80;50.40;;;;;;4392032;28;656768;-66
2022/05/10 10:34:35;;;;;;;8.50;2.70;;;20.50;46.70;;;;;;4403178;28;657710;-66
2022/05/10 10:37:25;;;;;;;8.70;3.27;;;22.10;47.90;;;;;;4381092;28;657703;-66
2022/05/10 10:40:19;;;;;;;6.43;2.50;;;22.10;47.80;;;;;;4409340;28;657824;-66
2022/05/10 10:43:09;;;;;;;9.00;3.00;;;21.40;45.80;;;;;;4373041;28;657009;-66
2022/05/10 10:46:04;;;;;;;6.73;3.00;;;21.80;44.70;;;;;;4400769;28;656332;-66
2022/05/10 10:48:54;;;;;;;5.23;2.77;;;22.10;46.70;;;;;;4403622;28;656404;-66
2022/05/10 10:51:42;;;;;;;8.50;2.97;;;21.60;47.00;;;;;;4407174;28;657601;-66
2022/05/10 10:54:29;;;;;;;9.30;2.90;;;21.50;43.70;;;;;;4421244;28;656373;-66
2022/05/10 10:57:46;;;;;;;7.23;2.90;;;21.60;46.20;;;;;;4404041;28;657424;-66
2022/05/10 11:00:35;;;;;;;7.03;2.67;;;21.70;48.60;;;;;;4400079;28;656727;-66
2022/05/10 11:03:28;;;;;;;7.90;2.70;;;22.20;43.10;;;;;;4398510;28;658098;-66
2022/05/10 11:06:21;;;;;;;12.43;3.00;;;21.70;45.00;;;;;;4392466;28;656321;-66
2022/05/10 11:09:17;;;;;;;5.20;2.50;;;22.10;46.00;;;;;;4384190;28;658563;-66
2022/05/10 11:12:12;;;;;;;7.67;3.10;;;23.10;42.70;;;;;;4388166;28;657024;-66
2022/05/10 11:15:05;;;;;;;6.90;2.60;;;23.00;42.90;;;;;;4392236;28;657084;-66
2022/05/10 11:18:04;;;;;;;8.07;2.60;;;23.00;42.00;;;;;;4376387;28;656787;-66
2022/05/10 11:20:58;;;;;;;7.57;3.10;;;23.50;42.20;;;;;;4378158;28;658002;-67
2022/05/10 11:23:50;;;;;;;9.40;2.87;;;22.90;46.00;;;;;;4394542;28;656494;-66
2022/05/10 11:26:55;;;;;;;7.57;3.20;;;21.80;45.30;;;;;;4402457;28;657326;-66
2022/05/10 11:29:53;;;;;;;7.57;2.97;;;22.60;45.20;;;;;;4372244;28;657591;-66
2022/05/10 11:32:59;;;;;;;8.10;2.97;;;22.80;45.00;;;;;;4384341;28;656778;-66
2022/05/10 11:35:57;;;;;;;8.97;3.20;;;22.90;45.60;;;;;;4381177;28;658040;-66
2022/05/10 11:39:06;;;;;;;7.90;3.00;;;23.90;41.90;;;;;;4397461;28;656489;-66
2022/05/10 11:41:57;;;;;;;8.47;3.20;;;23.40;45.00;;;;;;4400202;28;657016;-66
2022/05/10 11:44:56;;;;;;;8.00;3.10;;;21.70;44.40;;;;;;4396331;28;657020;-66
2022/05/10 11:48:14;;;;;;;7.57;2.80;;;22.20;42.00;;;;;;4395056;28;657433;-66
2022/05/10 11:54:51;;;;;;;5.13;2.40;;;22.70;42.70;;;;;;4374006;28;657587;-66
2022/05/10 11:57:38;;;;;;;6.73;2.80;;;22.70;39.50;;;;;;4392312;28;657786;-66
2022/05/10 12:00:51;;;;;;;8.07;2.97;;;21.50;39.50;;;;;;4407542;28;656780;-66
2022/05/10 12:03:52;;;;;;;7.30;2.83;;;21.50;42.40;;;;;;4392296;28;656345;-66
2022/05/10 12:06:42;;;;;;;12.30;3.20;;;23.10;43.50;;;;;;4396529;28;656508;-66
2022/05/10 12:09:58;;;;;;;5.50;2.73;;;21.90;38.20;;;;;;4391410;28;657744;-66
2022/05/10 12:13:02;;;;;;;8.13;2.83;;;22.10;39.80;;;;;;4402729;28;657117;-66
2022/05/10 12:22:00;;;;;;;8.17;2.80;;;24.00;41.50;;;;;;4396527;28;656645;-66
2022/05/10 12:24:48;;;;;;;6.60;3.10;;;23.00;43.90;;;;;;4401086;28;657709;-66
2022/05/10 12:27:36;;;;;;;9.47;3.20;;;22.40;39.40;;;;;;4400236;28;656826;-66
2022/05/10 12:30:34;;;;;;;9.57;3.13;;;23.30;41.70;;;;;;4423045;28;656283;-66
2022/05/10 12:33:35;;;;;;;8.60;3.17;;;24.20;40.40;;;;;;4394299;28;656880;-66
2022/05/10 12:36:28;;;;;;;7.00;2.85;;;24.60;38.80;;;;;;4374615;28;657349;-66
2022/05/10 12:39:25;;;;;;;9.85;3.17;;;23.30;39.90;;;;;;4391731;28;656898;-66
2022/05/10 12:42:14;;;;;;;10.60;2.97;;;23.30;39.40;;;;;;4378312;28;657228;-66
2022/05/10 12:45:15;;;;;;;7.00;2.70;;;23.00;38.20;;;;;;4401063;28;657768;-66
2022/05/10 12:48:06;;;;;;;7.13;2.80;;;23.10;41.10;;;;;;4396262;28;656882;-66
2022/05/10 12:50:55;;;;;;;7.70;2.70;;;23.30;39.60;;;;;;4396507;28;657220;-66
2022/05/10 12:53:44;;;;;;;4.90;2.42;;;23.90;38.90;;;;;;4392721;28;657275;-66
2022/05/10 12:56:36;;;;;;;5.20;2.67;;;23.00;40.80;;;;;;4405244;28;656264;-66
2022/05/10 12:59:26;;;;;;;7.47;2.40;;;22.80;36.30;;;;;;4398285;28;657815;-66
2022/05/10 13:02:14;;;;;;;9.53;2.30;;;22.60;38.80;;;;;;4397729;28;657305;-66
2022/05/10 13:05:07;;;;;;;5.57;2.30;;;23.80;35.50;;;;;;4398749;28;656765;-66
2022/05/10 13:08:31;;;;;;;5.07;2.30;;;22.80;37.70;;;;;;4398849;28;657024;-66
2022/05/10 13:11:18;;;;;;;4.17;2.30;;;22.40;39.60;;;;;;4377405;28;657297;-66
2022/05/10 13:14:08;;;;;;;4.80;2.53;;;23.40;40.10;;;;;;4404695;28;656340;-66
2022/05/10 13:16:56;;;;;;;8.23;2.57;;;23.20;38.80;;;;;;4399997;28;656724;-66
2022/05/10 13:19:43;;;;;;;7.63;2.33;;;23.20;42.20;;;;;;4420356;28;656854;-66
2022/05/10 13:22:31;;;;;;;5.90;2.87;;;23.20;38.40;;;;;;4393589;28;656597;-66
2022/05/10 13:25:26;;;;;;;8.63;2.37;;;24.00;36.20;;;;;;4429604;28;657694;-66
2022/05/10 13:28:14;;;;;;;10.37;2.17;;;23.00;34.40;;;;;;4392466;28;657146;-66
2022/05/10 13:31:03;;;;;;;8.27;2.80;;;23.10;37.20;;;;;;4391492;28;658308;-66
2022/05/10 13:33:50;;;;;;;7.23;2.50;;;22.10;37.00;;;;;;4396112;28;656671;-66
2022/05/10 13:36:38;;;;;;;3.83;2.10;;;22.90;37.30;;;;;;4418937;28;657104;-66
2022/05/10 13:39:26;;;;;;;6.37;2.60;;;23.40;40.80;;;;;;4397123;28;656715;-66
2022/05/10 13:42:13;;;;;;;7.40;2.30;;;23.40;36.90;;;;;;4415523;28;657893;-66
2022/05/10 13:45:01;;;;;;;5.67;2.10;;;22.90;36.50;;;;;;4396508;28;657251;-67
2022/05/10 13:47:50;;;;;;;6.73;2.40;;;22.70;38.50;;;;;;4424520;28;657229;-66
2022/05/10 13:50:37;;;;;;;9.07;2.07;;;23.90;38.40;;;;;;4396048;28;657673;-66
2022/05/10 13:53:27;;;;;;;10.90;2.10;;;23.90;38.90;;;;;;4418674;28;656380;-66
2022/05/10 13:56:23;;;;;;;4.03;2.10;;;24.60;40.80;;;;;;4411129;28;657347;-67
2022/05/10 13:59:11;;;;;;;7.38;2.20;;;23.60;38.90;;;;;;4373312;28;657116;-66
2022/05/10 14:02:02;;;;;;;4.27;2.53;;;23.10;36.60;;;;;;4418169;28;657735;-67
2022/05/10 14:04:51;;;;;;;7.83;2.40;;;24.30;38.70;;;;;;4391904;28;657074;-66
2022/05/10 14:07:39;;;;;;;3.35;2.35;;;24.80;36.20;;;;;;4391751;28;657506;-67
2022/05/10 14:10:29;;;;;;;4.00;2.30;;;24.30;34.40;;;;;;4395791;28;656443;-66
2022/05/10 14:13:20;;;;;;;5.00;2.05;;;23.80;35.20;;;;;;4396198;28;656709;-66
2022/05/10 14:16:10;;;;;;;6.60;2.13;;;23.30;34.30;;;;;;4393935;28;657689;-66
2022/05/10 14:18:58;;;;;;;3.83;2.13;;;23.40;35.30;;;;;;4403053;28;656820;-66
2022/05/10 14:21:49;;;;;;;7.63;2.20;;;23.30;34.30;;;;;;4403545;28;656771;-66
2022/05/10 14:24:36;;;;;;;8.60;2.33;;;23.00;36.70;;;;;;4402094;28;656606;-66
2022/05/10 14:27:24;;;;;;;6.10;2.13;;;23.90;36.20;;;;;;4421515;28;657040;-66
2022/05/10 14:30:20;;;;;;;4.37;2.30;;;23.80;37.50;;;;;;4404039;28;657135;-66
2022/05/10 14:33:16;;;;;;;2.93;1.80;;;23.80;36.10;;;;;;4379040;28;657722;-67
2022/05/10 14:36:06;;;;;;;6.10;2.20;;;23.80;36.60;;;;;;4405733;28;656480;-66
2022/05/10 14:38:56;;;;;;;7.18;2.10;;;24.40;36.80;;;;;;4392887;28;658186;-67
2022/05/10 14:41:45;;;;;;;12.32;3.63;;;24.10;33.10;;;;;;4395197;28;657036;-66
2022/05/10 14:44:38;;;;;;;5.38;2.05;;;24.30;34.70;;;;;;4396554;28;658315;-66
2022/05/10 14:47:26;;;;;;;5.88;2.10;;;24.40;38.20;;;;;;4408667;28;656263;-66
2022/05/10 14:50:33;;;;;;;7.05;2.22;;;23.60;33.20;;;;;;4440639;28;657303;-67
2022/05/10 14:53:22;;;;;;;3.33;1.95;;;23.80;34.00;;;;;;4371782;28;656461;-66
2022/05/10 14:56:21;;;;;;;11.38;3.72;;;23.90;33.50;;;;;;4418450;28;656700;-66
2022/05/10 14:59:17;;;;;;;5.85;2.70;;;25.30;35.60;;;;;;4410317;28;657624;-66